createdAt,value
2023-05-01T00:02:59.762Z,11.44
2023-05-01T00:06:03.528Z,11.42
2023-05-01T00:09:07.077Z,11.39
2023-05-01T00:12:11.859Z,11.35
2023-05-01T00:15:14.527Z,11.33
2023-05-01T00:18:17.347Z,11.27
2023-05-01T00:21:19.935Z,11.23
2023-05-01T00:24:22.556Z,11.22
2023-05-01T00:27:27.298Z,11.16
2023-05-01T00:30:30.200Z,11.12
2023-05-01T00:33:32.734Z,11.06
2023-05-01T00:36:35.300Z,11.08
2023-05-01T00:39:37.774Z,10.92
2023-05-01T00:42:41.645Z,10.94
2023-05-01T00:45:45.487Z,11.00
2023-05-01T00:48:48.129Z,10.96
2023-05-01T00:51:54.188Z,10.98
2023-05-01T00:54:57.065Z,10.96
2023-05-01T00:58:01.803Z,10.96
2023-05-01T01:01:05.125Z,10.91
2023-05-01T01:04:08.123Z,10.95
2023-05-01T01:07:13.087Z,11.03
2023-05-01T01:10:20.556Z,11.00
2023-05-01T01:13:29.587Z,10.97
2023-05-01T01:16:34.875Z,10.98
2023-05-01T01:19:56.924Z,10.94
2023-05-01T01:23:11.746Z,10.97
2023-05-01T01:26:40.477Z,10.96
2023-05-01T01:30:06.756Z,10.97
2023-05-01T01:33:26.628Z,10.92
2023-05-01T01:36:48.208Z,11.04
2023-05-01T01:39:54.612Z,11.04
2023-05-01T01:43:00.789Z,11.07
2023-05-01T01:46:04.509Z,11.04
2023-05-01T01:49:09.057Z,11.08
2023-05-01T01:52:15.145Z,11.09
2023-05-01T01:55:18.880Z,11.12
2023-05-01T01:58:26.052Z,11.09
2023-05-01T02:01:30.527Z,11.10
2023-05-01T02:04:33.854Z,11.08
2023-05-01T02:07:38.947Z,11.18
2023-05-01T02:10:41.705Z,11.20
2023-05-01T02:13:44.972Z,11.21
2023-05-01T02:16:47.649Z,11.22
2023-05-01T02:19:53.108Z,11.23
2023-05-01T02:22:57.205Z,11.23
2023-05-01T02:26:01.771Z,11.28
2023-05-01T02:29:04.950Z,11.27
2023-05-01T02:32:07.493Z,11.24
2023-05-01T02:35:10.490Z,11.30
2023-05-01T02:38:15.007Z,11.32
2023-05-01T02:41:17.982Z,11.34
2023-05-01T02:44:22.300Z,11.37
2023-05-01T02:47:27.339Z,11.35
2023-05-01T02:50:30.597Z,11.33
2023-05-01T02:53:34.658Z,11.33
2023-05-01T02:56:37.440Z,11.34
2023-05-01T02:59:40.305Z,11.34
2023-05-01T03:02:42.932Z,11.36
2023-05-01T03:05:45.587Z,11.38
2023-05-01T03:08:49.650Z,11.39
2023-05-01T03:11:52.261Z,11.43
2023-05-01T03:14:54.771Z,11.44
2023-05-01T03:17:57.506Z,11.40
2023-05-01T03:21:00.314Z,11.46
2023-05-01T03:24:04.415Z,11.50
2023-05-01T03:27:07.584Z,11.50
2023-05-01T03:30:11.161Z,11.52
2023-05-01T03:33:13.613Z,11.51
2023-05-01T03:36:16.400Z,11.49
2023-05-01T03:39:20.357Z,11.54
2023-05-01T03:42:22.911Z,11.58
2023-05-01T03:45:25.418Z,11.59
2023-05-01T03:48:27.915Z,11.59
2023-05-01T03:51:30.480Z,11.61
2023-05-01T03:54:34.328Z,11.58
2023-05-01T03:57:37.076Z,11.61
2023-05-01T04:00:39.654Z,11.65
2023-05-01T04:03:42.278Z,11.67
2023-05-01T04:06:45.063Z,11.69
2023-05-01T04:09:49.152Z,11.75
2023-05-01T04:12:51.917Z,11.75
2023-05-01T04:15:55.815Z,11.76
2023-05-01T04:18:58.425Z,11.78
2023-05-01T04:22:01.413Z,11.82
2023-05-01T04:25:05.717Z,11.85
2023-05-01T04:28:08.251Z,11.91
2023-05-01T04:31:10.973Z,12.06
2023-05-01T04:34:13.490Z,12.08
2023-05-01T04:37:17.875Z,12.12
2023-05-01T04:40:21.986Z,12.18
2023-05-01T04:43:24.616Z,12.17
2023-05-01T04:46:27.111Z,12.18
2023-05-01T04:49:29.744Z,12.18
2023-05-01T04:52:32.263Z,12.20
2023-05-01T04:55:36.410Z,12.25
2023-05-01T04:58:38.930Z,12.28
2023-05-01T05:01:41.498Z,12.34
2023-05-01T05:04:44.060Z,12.46
2023-05-01T05:07:46.629Z,12.53
2023-05-01T05:10:50.484Z,12.59
2023-05-01T05:13:52.930Z,12.69
2023-05-01T05:16:55.475Z,12.78
2023-05-01T05:19:58.252Z,12.88
2023-05-01T05:23:00.901Z,12.87
2023-05-01T05:26:05.532Z,12.89
2023-05-01T05:29:08.529Z,12.91
2023-05-01T05:32:11.514Z,12.93
2023-05-01T05:35:14.201Z,12.93
2023-05-01T05:38:17.055Z,12.83
2023-05-01T05:41:21.553Z,12.86
2023-05-01T05:44:24.527Z,12.85
2023-05-01T05:47:27.275Z,12.83
2023-05-01T05:50:30.271Z,12.80
2023-05-01T05:53:32.864Z,12.72
2023-05-01T05:56:36.722Z,12.74
2023-05-01T05:59:39.278Z,12.73
2023-05-01T06:02:41.969Z,12.74
2023-05-01T06:05:44.885Z,12.81
2023-05-01T06:08:47.416Z,12.92
2023-05-01T06:11:51.321Z,13.02
2023-05-01T06:14:53.947Z,13.14
2023-05-01T06:17:57.572Z,13.28
2023-05-01T06:21:00.092Z,13.35
2023-05-01T06:24:02.792Z,13.52
2023-05-01T06:27:06.858Z,13.66
2023-05-01T06:30:10.749Z,13.83
2023-05-01T06:33:13.283Z,13.93
2023-05-01T06:36:15.856Z,14.19
2023-05-01T06:39:18.369Z,14.28
2023-05-01T06:42:22.215Z,14.33
2023-05-01T06:45:24.719Z,14.25
2023-05-01T06:48:27.229Z,14.49
2023-05-01T06:51:30.346Z,14.70
2023-05-01T06:54:32.920Z,14.72
2023-05-01T06:57:37.105Z,14.83
2023-05-01T07:00:39.992Z,14.91
2023-05-01T07:03:42.690Z,14.94
2023-05-01T07:06:45.537Z,15.06
2023-05-01T07:09:48.191Z,15.34
2023-05-01T07:12:52.055Z,15.59
2023-05-01T07:15:54.926Z,15.68
2023-05-01T07:18:57.598Z,15.52
2023-05-01T07:22:00.122Z,15.53
2023-05-01T07:25:03.513Z,15.80
2023-05-01T07:28:08.150Z,15.99
2023-05-01T07:31:10.979Z,16.34
2023-05-01T07:34:13.712Z,16.76
2023-05-01T07:37:16.409Z,16.54
2023-05-01T07:40:19.174Z,16.75
2023-05-01T07:43:23.312Z,16.99
2023-05-01T07:46:26.031Z,17.42
2023-05-01T07:49:28.807Z,18.16
2023-05-01T07:52:31.441Z,18.25
2023-05-01T07:55:34.019Z,18.18
2023-05-01T07:58:38.390Z,18.56
2023-05-01T08:01:41.249Z,18.46
2023-05-01T08:04:43.984Z,18.12
2023-05-01T08:07:46.583Z,18.12
2023-05-01T08:10:49.404Z,17.89
2023-05-01T08:13:53.426Z,17.93
2023-05-01T08:16:55.945Z,18.31
2023-05-01T08:19:58.837Z,18.26
2023-05-01T08:23:01.614Z,18.20
2023-05-01T08:26:04.368Z,18.64
2023-05-01T08:29:08.331Z,19.29
2023-05-01T08:32:10.975Z,19.85
2023-05-01T08:35:13.650Z,20.49
2023-05-01T08:38:16.938Z,21.43
2023-05-01T08:41:22.112Z,21.29
2023-05-01T08:44:26.840Z,21.48
2023-05-01T08:47:30.617Z,20.27
2023-05-01T08:50:35.805Z,20.09
2023-05-01T08:53:41.377Z,20.93
2023-05-01T08:56:44.716Z,21.44
2023-05-01T08:59:50.949Z,22.01
2023-05-01T09:02:53.737Z,21.79
2023-05-01T09:05:56.686Z,21.89
2023-05-01T09:08:59.476Z,22.15
2023-05-01T09:12:08.051Z,21.69
2023-05-01T09:15:12.796Z,21.80
2023-05-01T09:18:15.489Z,21.89
2023-05-01T09:21:18.110Z,21.81
2023-05-01T09:24:20.747Z,22.15
2023-05-01T09:27:24.103Z,22.15
2023-05-01T09:30:36.428Z,21.47
2023-05-01T09:33:53.960Z,22.03
2023-05-01T09:36:56.536Z,22.69
2023-05-01T09:40:07.803Z,22.31
2023-05-01T09:43:11.778Z,22.34
2023-05-01T09:46:17.130Z,22.84
2023-05-01T09:49:19.686Z,22.99
2023-05-01T09:52:22.364Z,23.16
2023-05-01T09:55:25.931Z,23.22
2023-05-01T09:58:29.060Z,23.35
2023-05-01T10:01:43.395Z,23.45
2023-05-01T10:04:46.361Z,23.76
2023-05-01T10:07:59.582Z,23.55
2023-05-01T10:11:05.171Z,23.02
2023-05-01T10:14:09.616Z,22.58
2023-05-01T10:17:20.033Z,22.04
2023-05-01T10:20:23.024Z,22.19
2023-05-01T10:23:26.309Z,22.55
2023-05-01T10:26:28.886Z,22.43
2023-05-01T10:29:32.978Z,22.64
2023-05-01T10:32:38.151Z,23.33
2023-05-01T10:35:42.047Z,23.78
2023-05-01T10:38:48.252Z,24.37
2023-05-01T10:42:10.923Z,24.66
2023-05-01T10:45:30.208Z,24.56
2023-05-01T10:48:56.988Z,24.78
2023-05-01T10:52:00.925Z,24.76
2023-05-01T10:55:33.408Z,24.21
2023-05-01T10:58:58.980Z,24.50
2023-05-01T11:02:01.748Z,23.04
2023-05-01T11:05:07.030Z,22.90
2023-05-01T11:08:30.268Z,23.49
2023-05-01T11:11:51.313Z,24.09
2023-05-01T11:15:05.574Z,24.08
2023-05-01T11:18:08.972Z,23.44
2023-05-01T11:21:13.084Z,23.90
2023-05-01T11:24:17.498Z,23.19
2023-05-01T11:27:20.202Z,23.31
2023-05-01T11:30:23.111Z,23.88
2023-05-01T11:33:26.317Z,24.53
2023-05-01T11:36:32.033Z,25.10
2023-05-01T11:39:34.623Z,24.51
2023-05-01T11:42:37.200Z,23.28
2023-05-01T11:45:39.848Z,23.33
2023-05-01T11:48:42.414Z,23.35
2023-05-01T11:51:46.579Z,23.44
2023-05-01T11:54:49.434Z,23.12
2023-05-01T11:57:53.096Z,23.23
2023-05-01T12:00:55.709Z,22.42
2023-05-01T12:03:58.415Z,22.31
2023-05-01T12:07:03.663Z,22.66
2023-05-01T12:10:07.164Z,23.81
2023-05-01T12:13:11.638Z,24.63
2023-05-01T12:16:14.397Z,24.55
2023-05-01T12:19:17.603Z,24.39
2023-05-01T12:22:21.775Z,24.87
2023-05-01T12:25:31.992Z,24.78
2023-05-01T12:28:34.533Z,24.40
2023-05-01T12:31:37.602Z,24.52
2023-05-01T12:34:40.199Z,24.83
2023-05-01T12:37:44.458Z,25.32
2023-05-01T12:40:57.754Z,25.60
2023-05-01T12:44:00.188Z,25.84
2023-05-01T12:47:05.501Z,25.54
2023-05-01T12:50:09.964Z,25.71
2023-05-01T12:53:13.985Z,25.00
2023-05-01T12:56:24.965Z,24.50
2023-05-01T12:59:28.778Z,23.86
2023-05-01T13:02:32.406Z,24.06
2023-05-01T13:05:35.132Z,23.65
2023-05-01T13:08:40.493Z,23.02
2023-05-01T13:11:43.258Z,22.60
2023-05-01T13:14:46.041Z,22.63
2023-05-01T13:17:48.900Z,22.21
2023-05-01T13:20:52.103Z,22.25
2023-05-01T13:23:56.634Z,22.09
2023-05-01T13:27:02.388Z,21.71
2023-05-01T13:30:08.118Z,20.83
2023-05-01T13:33:11.982Z,20.50
2023-05-01T13:36:25.337Z,20.24
2023-05-01T13:39:30.877Z,19.98
2023-05-01T13:42:33.655Z,19.47
2023-05-01T13:45:36.403Z,18.97
2023-05-01T13:48:40.321Z,19.08
2023-05-01T13:51:45.127Z,19.40
2023-05-01T13:54:49.248Z,19.79
2023-05-01T13:57:51.809Z,19.91
2023-05-01T14:00:54.741Z,19.91
2023-05-01T14:03:58.082Z,19.98
2023-05-01T14:07:01.274Z,19.77
2023-05-01T14:10:11.032Z,19.85
2023-05-01T14:13:14.034Z,20.36
2023-05-01T14:16:23.989Z,20.86
2023-05-01T14:19:27.300Z,20.49
2023-05-01T14:22:30.464Z,21.97
2023-05-01T14:25:35.385Z,22.67
2023-05-01T14:28:42.601Z,23.90
2023-05-01T14:31:45.150Z,22.85
2023-05-01T14:34:47.745Z,23.19
2023-05-01T14:37:50.384Z,24.89
2023-05-01T14:40:54.247Z,31.80
2023-05-01T14:43:56.943Z,34.56
2023-05-01T14:47:00.317Z,37.79
2023-05-01T14:50:03.469Z,33.37
2023-05-01T14:53:06.519Z,27.92
2023-05-01T14:56:10.338Z,24.90
2023-05-01T14:59:12.970Z,23.52
2023-05-01T15:02:15.986Z,22.68
2023-05-01T15:05:18.826Z,22.29
2023-05-01T15:08:21.788Z,21.70
2023-05-01T15:11:26.189Z,21.30
2023-05-01T15:14:28.677Z,20.76
2023-05-01T15:17:32.522Z,20.32
2023-05-01T15:20:35.318Z,20.08
2023-05-01T15:23:38.076Z,19.96
2023-05-01T15:26:42.650Z,19.78
2023-05-01T15:29:45.434Z,19.59
2023-05-01T15:32:48.118Z,19.60
2023-05-01T15:35:52.613Z,19.50
2023-05-01T15:38:55.174Z,18.99
2023-05-01T15:41:59.072Z,18.82
2023-05-01T15:45:02.984Z,18.97
2023-05-01T15:48:06.282Z,18.95
2023-05-01T15:51:08.956Z,19.25
2023-05-01T15:54:11.487Z,19.32
2023-05-01T15:57:17.820Z,19.29
2023-05-01T16:00:21.804Z,19.29
2023-05-01T16:03:24.531Z,19.44
2023-05-01T16:06:28.173Z,19.26
2023-05-01T16:09:31.980Z,18.94
2023-05-01T16:12:36.035Z,18.52
2023-05-01T16:15:39.068Z,18.69
2023-05-01T16:18:42.546Z,18.63
2023-05-01T16:21:45.333Z,18.35
2023-05-01T16:24:47.910Z,18.13
2023-05-01T16:27:51.774Z,17.89
2023-05-01T16:30:54.362Z,17.30
2023-05-01T16:33:57.121Z,16.83
2023-05-01T16:37:00.761Z,16.47
2023-05-01T16:40:03.421Z,16.49
2023-05-01T16:43:07.475Z,16.34
2023-05-01T16:46:10.391Z,16.35
2023-05-01T16:49:14.297Z,16.36
2023-05-01T16:52:17.629Z,16.31
2023-05-01T16:55:20.413Z,16.35
2023-05-01T16:58:24.304Z,16.08
2023-05-01T17:01:27.729Z,15.90
2023-05-01T17:04:30.471Z,16.19
2023-05-01T17:07:33.351Z,16.14
2023-05-01T17:10:38.249Z,15.69
2023-05-01T17:13:42.162Z,15.24
2023-05-01T17:16:45.711Z,14.99
2023-05-01T17:19:49.329Z,15.06
2023-05-01T17:22:51.935Z,15.08
2023-05-01T17:25:54.397Z,15.08
2023-05-01T17:28:58.349Z,15.10
2023-05-01T17:32:00.998Z,15.34
2023-05-01T17:35:03.909Z,15.51
2023-05-01T17:38:06.414Z,15.56
2023-05-01T17:41:09.008Z,15.55
2023-05-01T17:44:12.862Z,15.70
2023-05-01T17:47:15.410Z,15.62
2023-05-01T17:50:19.270Z,15.60
2023-05-01T17:53:23.044Z,15.51
2023-05-01T17:56:25.809Z,15.53
2023-05-01T17:59:30.668Z,15.50
2023-05-01T18:02:33.347Z,15.45
2023-05-01T18:05:36.051Z,15.36
2023-05-01T18:08:38.528Z,15.27
2023-05-01T18:11:41.485Z,15.18
2023-05-01T18:14:45.365Z,15.15
2023-05-01T18:17:48.020Z,15.17
2023-05-01T18:20:50.700Z,15.15
2023-05-01T18:23:53.232Z,15.08
2023-05-01T18:26:55.758Z,14.91
2023-05-01T18:30:00.371Z,14.90
2023-05-01T18:33:03.541Z,14.88
2023-05-01T18:36:06.404Z,14.79
2023-05-01T18:39:08.891Z,14.62
2023-05-01T18:42:11.500Z,14.68
2023-05-01T18:45:15.436Z,14.72
2023-05-01T18:48:18.020Z,14.70
2023-05-01T18:51:20.851Z,14.60
2023-05-01T18:54:23.927Z,14.60
2023-05-01T18:57:27.619Z,14.56
2023-05-01T19:00:31.761Z,14.52
2023-05-01T19:03:34.300Z,14.43
2023-05-01T19:06:36.952Z,14.39
2023-05-01T19:09:39.564Z,14.40
2023-05-01T19:12:42.314Z,14.48
2023-05-01T19:15:46.449Z,14.45
2023-05-01T19:18:49.005Z,14.42
2023-05-01T19:21:51.651Z,14.39
2023-05-01T19:24:54.207Z,14.37
2023-05-01T19:27:57.288Z,14.39
2023-05-01T19:31:01.284Z,14.47
2023-05-01T19:34:03.839Z,14.55
2023-05-01T19:37:06.456Z,14.58
2023-05-01T19:40:09.999Z,14.62
2023-05-01T19:43:13.364Z,14.69
2023-05-01T19:46:17.313Z,14.63
2023-05-01T19:49:19.995Z,14.49
2023-05-01T19:52:22.660Z,14.49
2023-05-01T19:55:25.284Z,14.42
2023-05-01T19:58:28.231Z,14.28
2023-05-01T20:01:32.426Z,14.09
2023-05-01T20:04:35.061Z,13.97
2023-05-01T20:07:37.967Z,14.02
2023-05-01T20:10:40.560Z,13.98
2023-05-01T20:13:43.148Z,14.02
2023-05-01T20:16:48.973Z,14.05
2023-05-01T20:19:51.660Z,14.01
2023-05-01T20:23:10.078Z,13.99
2023-05-01T20:26:12.627Z,13.99
2023-05-01T20:29:15.466Z,13.95
2023-05-01T20:32:19.390Z,13.88
2023-05-01T20:35:21.973Z,13.84
2023-05-01T20:38:24.554Z,13.75
2023-05-01T20:41:27.899Z,13.69
2023-05-01T20:44:30.424Z,13.56
2023-05-01T20:47:34.356Z,13.43
2023-05-01T20:50:37.126Z,13.34
2023-05-01T20:53:39.737Z,13.27
2023-05-01T20:56:42.247Z,13.15
2023-05-01T20:59:47.664Z,13.02
2023-05-01T21:02:52.943Z,12.88
2023-05-01T21:05:59.333Z,12.81
2023-05-01T21:09:04.613Z,12.71
2023-05-01T21:12:08.982Z,12.64
2023-05-01T21:15:12.279Z,12.59
2023-05-01T21:18:20.279Z,12.55
2023-05-01T21:21:24.781Z,12.67
2023-05-01T21:24:27.294Z,12.70
2023-05-01T21:27:29.777Z,12.68
2023-05-01T21:30:34.247Z,12.68
2023-05-01T21:33:39.966Z,12.73
2023-05-01T21:36:44.931Z,12.70
2023-05-01T21:39:47.424Z,12.68
2023-05-01T21:42:50.044Z,12.61
2023-05-01T21:45:52.594Z,12.56
2023-05-01T21:48:56.471Z,12.47
2023-05-01T21:52:00.904Z,12.34
2023-05-01T21:55:04.253Z,12.31
2023-05-01T21:58:06.895Z,12.31
2023-05-01T22:01:10.321Z,12.25
2023-05-01T22:04:18.115Z,12.23
2023-05-01T22:07:20.652Z,12.21
2023-05-01T22:10:23.188Z,12.13
2023-05-01T22:13:31.958Z,12.13
2023-05-01T22:16:34.795Z,12.15
2023-05-01T22:19:38.879Z,12.23
2023-05-01T22:22:42.899Z,12.21
2023-05-01T22:25:45.596Z,12.13
2023-05-01T22:28:49.665Z,12.07
2023-05-01T22:31:52.201Z,12.05
2023-05-01T22:34:56.365Z,12.07
2023-05-01T22:37:58.920Z,12.03
2023-05-01T22:41:01.490Z,11.98
2023-05-01T22:44:03.960Z,12.02
2023-05-01T22:47:07.102Z,12.02
2023-05-01T22:50:11.946Z,12.04
2023-05-01T22:53:14.448Z,11.90
2023-05-01T22:56:17.058Z,11.59
2023-05-01T22:59:19.981Z,11.38
2023-05-01T23:02:22.769Z,11.24
2023-05-01T23:05:27.016Z,11.09
2023-05-01T23:08:29.511Z,11.03
2023-05-01T23:11:33.241Z,10.96
2023-05-01T23:14:37.886Z,11.02
2023-05-01T23:17:40.849Z,11.06
2023-05-01T23:20:44.910Z,11.04
2023-05-01T23:23:48.089Z,11.00
2023-05-01T23:26:50.625Z,10.95
2023-05-01T23:29:56.462Z,10.98
2023-05-01T23:32:59.665Z,10.96
2023-05-01T23:36:03.942Z,10.91
2023-05-01T23:39:08.498Z,10.91
2023-05-01T23:42:11.119Z,10.86
2023-05-01T23:45:13.631Z,10.74
2023-05-01T23:48:16.235Z,10.66
2023-05-01T23:51:20.173Z,10.66
2023-05-01T23:54:22.715Z,10.61
2023-05-01T23:57:25.422Z,10.44
